createdAt,value
2018-11-02T00:00:14.859Z,0.00
2018-11-02T00:01:14.788Z,0.00
2018-11-02T00:02:14.774Z,0.00
2018-11-02T00:03:14.762Z,0.00
2018-11-02T00:04:14.751Z,0.00
2018-11-02T00:05:14.739Z,0.00
2018-11-02T00:06:14.888Z,0.00
2018-11-02T00:07:14.716Z,0.00
2018-11-02T00:08:14.707Z,0.00
2018-11-02T00:09:14.689Z,0.00
2018-11-02T00:10:14.677Z,0.00
2018-11-02T00:11:14.711Z,0.00
2018-11-02T00:12:14.692Z,0.00
2018-11-02T00:13:14.641Z,0.00
2018-11-02T00:14:14.633Z,0.00
2018-11-02T00:15:14.617Z,0.00
2018-11-02T00:16:14.605Z,0.00
2018-11-02T00:17:14.592Z,0.00
2018-11-02T00:18:14.581Z,0.00
2018-11-02T00:19:14.567Z,0.00
2018-11-02T00:20:14.554Z,0.00
2018-11-02T00:21:14.543Z,0.00
2018-11-02T00:22:14.532Z,0.00
2018-11-02T00:23:14.518Z,0.00
2018-11-02T00:24:14.506Z,0.00
2018-11-02T00:25:14.494Z,0.00
2018-11-02T00:26:14.480Z,0.00
2018-11-02T00:27:14.471Z,0.00
2018-11-02T00:28:14.456Z,0.00
2018-11-02T00:29:14.443Z,0.00
2018-11-02T00:30:14.431Z,0.00
2018-11-02T00:31:14.424Z,0.00
2018-11-02T00:32:14.409Z,0.00
2018-11-02T00:33:14.396Z,0.00
2018-11-02T00:34:14.402Z,0.00
2018-11-02T00:35:14.370Z,0.00
2018-11-02T00:36:14.360Z,0.00
2018-11-02T00:37:14.346Z,0.00
2018-11-02T00:38:14.334Z,0.00
2018-11-02T00:39:14.322Z,0.00
2018-11-02T00:40:14.308Z,0.00
2018-11-02T00:41:14.296Z,0.00
2018-11-02T00:42:14.285Z,0.00
2018-11-02T00:43:14.272Z,0.00
2018-11-02T00:44:14.317Z,0.00
2018-11-02T00:45:14.246Z,0.00
2018-11-02T00:46:14.237Z,0.00
2018-11-02T00:47:14.224Z,0.00
2018-11-02T00:48:14.209Z,0.00
2018-11-02T00:49:14.197Z,0.00
2018-11-02T00:50:14.183Z,0.00
2018-11-02T00:51:14.171Z,0.00
2018-11-02T00:52:14.159Z,0.00
2018-11-02T00:53:14.146Z,0.00
2018-11-02T00:54:14.144Z,0.00
2018-11-02T00:55:14.121Z,0.00
2018-11-02T00:56:14.111Z,0.00
2018-11-02T00:57:14.096Z,0.00
2018-11-02T00:58:14.085Z,0.00
2018-11-02T00:59:14.072Z,0.00
2018-11-02T01:00:14.061Z,0.00
2018-11-02T01:01:14.049Z,0.00
2018-11-02T01:02:14.036Z,0.00
2018-11-02T01:03:14.025Z,0.00
2018-11-02T01:04:14.013Z,0.00
2018-11-02T01:05:13.997Z,0.00
2018-11-02T01:06:13.983Z,0.00
2018-11-02T01:07:13.974Z,0.00
2018-11-02T01:08:13.959Z,0.00
2018-11-02T01:09:13.951Z,0.00
2018-11-02T01:10:13.933Z,0.00
2018-11-02T01:11:13.923Z,0.00
2018-11-02T01:12:13.912Z,0.00
2018-11-02T01:13:13.916Z,0.00
2018-11-02T01:14:13.884Z,0.00
2018-11-02T01:15:13.878Z,0.00
2018-11-02T01:16:13.858Z,0.00
2018-11-02T01:17:13.853Z,0.00
2018-11-02T01:18:13.835Z,0.00
2018-11-02T01:19:13.824Z,0.00
2018-11-02T01:20:13.843Z,0.00
2018-11-02T01:21:13.798Z,0.00
2018-11-02T01:22:13.789Z,0.00
2018-11-02T01:23:13.771Z,0.00
2018-11-02T01:24:13.760Z,0.00
2018-11-02T01:25:13.747Z,0.00
2018-11-02T01:26:13.739Z,0.00
2018-11-02T01:27:13.743Z,0.00
2018-11-02T01:28:13.713Z,0.00
2018-11-02T01:29:13.699Z,0.00
2018-11-02T01:30:13.688Z,0.00
2018-11-02T01:31:13.674Z,0.00
2018-11-02T01:32:13.660Z,0.00
2018-11-02T01:33:13.648Z,0.00
2018-11-02T01:34:13.644Z,0.00
2018-11-02T01:35:13.624Z,0.00
2018-11-02T01:36:13.613Z,0.00
2018-11-02T01:37:13.597Z,0.00
2018-11-02T01:38:13.588Z,0.00
2018-11-02T01:39:13.573Z,0.00
2018-11-02T01:40:13.562Z,0.00
2018-11-02T01:41:13.548Z,0.00
2018-11-02T01:42:13.535Z,0.00
2018-11-02T01:43:13.525Z,0.00
2018-11-02T01:44:13.512Z,0.00
2018-11-02T01:45:13.500Z,0.00
2018-11-02T01:46:13.488Z,0.00
2018-11-02T01:47:13.472Z,0.00
2018-11-02T01:48:13.462Z,0.00
2018-11-02T01:49:13.447Z,0.00
2018-11-02T01:50:13.436Z,0.00
2018-11-02T01:51:13.424Z,0.00
2018-11-02T01:52:13.411Z,0.00
2018-11-02T01:53:13.401Z,0.00
2018-11-02T01:54:13.388Z,0.00
2018-11-02T01:55:13.378Z,0.00
2018-11-02T01:56:13.371Z,0.00
2018-11-02T01:57:13.349Z,0.00
2018-11-02T01:58:13.339Z,0.00
2018-11-02T01:59:13.327Z,0.00
2018-11-02T02:00:13.320Z,0.00
2018-11-02T02:01:13.300Z,0.00
2018-11-02T02:02:13.288Z,0.00
2018-11-02T02:03:13.318Z,0.00
2018-11-02T02:04:13.265Z,0.00
2018-11-02T02:05:13.278Z,0.00
2018-11-02T02:06:13.240Z,0.00
2018-11-02T02:07:13.227Z,0.00
2018-11-02T02:08:13.215Z,0.00
2018-11-02T02:09:13.201Z,0.00
2018-11-02T02:10:13.189Z,0.00
2018-11-02T02:11:13.181Z,0.00
2018-11-02T02:12:13.164Z,0.00
2018-11-02T02:13:13.230Z,0.00
2018-11-02T02:14:13.141Z,0.00
2018-11-02T02:15:13.132Z,0.00
2018-11-02T02:16:13.117Z,0.00
2018-11-02T02:17:13.102Z,0.00
2018-11-02T02:18:13.090Z,0.00
2018-11-02T02:19:13.079Z,0.00
2018-11-02T02:20:13.065Z,0.00
2018-11-02T02:21:13.053Z,0.00
2018-11-02T02:22:13.041Z,0.00
2018-11-02T02:23:13.031Z,0.00
2018-11-02T02:24:13.019Z,0.00
2018-11-02T02:25:13.006Z,0.00
2018-11-02T02:26:12.992Z,0.00
2018-11-02T02:27:12.979Z,0.00
2018-11-02T02:28:12.967Z,0.00
2018-11-02T02:29:12.954Z,0.00
2018-11-02T02:30:12.943Z,0.00
2018-11-02T02:31:12.929Z,0.00
2018-11-02T02:32:12.917Z,0.00
2018-11-02T02:33:12.905Z,0.00
2018-11-02T02:34:12.895Z,0.00
2018-11-02T02:35:12.879Z,0.00
2018-11-02T02:36:12.868Z,0.00
2018-11-02T02:37:12.853Z,0.00
2018-11-02T02:38:12.841Z,0.00
2018-11-02T02:39:12.829Z,0.00
2018-11-02T02:40:12.824Z,0.00
2018-11-02T02:41:12.809Z,0.00
2018-11-02T02:42:12.792Z,0.00
2018-11-02T02:43:12.781Z,0.00
2018-11-02T02:44:12.767Z,0.00
2018-11-02T02:45:12.757Z,0.00
2018-11-02T02:46:12.741Z,0.00
2018-11-02T02:47:12.738Z,0.00
2018-11-02T02:48:12.720Z,0.00
2018-11-02T02:49:12.705Z,0.00
2018-11-02T02:50:12.696Z,0.00
2018-11-02T02:51:12.684Z,0.00
2018-11-02T02:52:12.673Z,0.00
2018-11-02T02:53:12.659Z,0.00
2018-11-02T02:54:12.646Z,0.00
2018-11-02T02:55:12.638Z,0.00
2018-11-02T02:56:12.623Z,0.00
2018-11-02T02:57:12.609Z,0.00
2018-11-02T02:58:12.596Z,0.00
2018-11-02T02:59:12.584Z,0.00
2018-11-02T03:00:12.576Z,0.00
2018-11-02T03:01:12.560Z,0.00
2018-11-02T03:02:12.547Z,0.00
2018-11-02T03:03:12.536Z,0.00
2018-11-02T03:04:12.523Z,0.00
2018-11-02T03:05:12.506Z,0.00
2018-11-02T03:06:12.495Z,0.00
2018-11-02T03:07:12.482Z,0.00
2018-11-02T03:08:12.487Z,0.00
2018-11-02T03:09:12.460Z,0.00
2018-11-02T03:10:12.459Z,0.00
2018-11-02T03:11:12.674Z,0.00
2018-11-02T03:12:12.423Z,0.00
2018-11-02T03:13:12.408Z,0.00
2018-11-02T03:14:12.398Z,0.00
2018-11-02T03:15:12.389Z,0.00
2018-11-02T03:16:12.373Z,0.00
2018-11-02T03:17:12.360Z,0.00
2018-11-02T03:18:12.353Z,0.00
2018-11-02T03:19:12.336Z,0.00
2018-11-02T03:20:12.323Z,0.00
2018-11-02T03:21:12.312Z,0.00
2018-11-02T03:22:12.347Z,0.00
2018-11-02T03:23:12.286Z,0.00
2018-11-02T03:24:12.273Z,0.00
2018-11-02T03:25:12.262Z,0.00
2018-11-02T03:26:12.253Z,0.00
2018-11-02T03:27:12.237Z,0.00
2018-11-02T03:28:12.226Z,0.00
2018-11-02T03:29:12.213Z,0.00
2018-11-02T03:30:12.198Z,0.00
2018-11-02T03:31:12.192Z,0.00
2018-11-02T03:32:12.177Z,0.00
2018-11-02T03:33:12.164Z,0.00
2018-11-02T03:34:12.150Z,0.00
2018-11-02T03:35:12.141Z,0.00
2018-11-02T03:36:12.126Z,0.00
2018-11-02T03:37:12.112Z,0.00
2018-11-02T03:38:12.101Z,0.00
2018-11-02T03:39:12.094Z,0.00
2018-11-02T03:40:12.078Z,0.00
2018-11-02T03:41:12.064Z,0.00
2018-11-02T03:42:12.050Z,0.00
2018-11-02T03:43:12.040Z,0.00
2018-11-02T03:44:12.027Z,0.00
2018-11-02T03:45:12.012Z,0.00
2018-11-02T03:46:12.004Z,0.00
2018-11-02T03:47:11.990Z,0.00
2018-11-02T03:48:11.979Z,0.00
2018-11-02T03:49:11.965Z,0.00
2018-11-02T03:50:11.954Z,0.00
2018-11-02T03:51:11.941Z,0.00
2018-11-02T03:52:11.951Z,0.00
2018-11-02T03:53:11.916Z,0.00
2018-11-02T03:54:11.946Z,0.00
2018-11-02T03:55:11.889Z,0.00
2018-11-02T03:56:11.876Z,0.00
2018-11-02T03:57:11.864Z,0.00
2018-11-02T03:58:11.855Z,0.00
2018-11-02T03:59:11.871Z,0.00
2018-11-02T04:00:11.829Z,0.00
2018-11-02T04:01:11.816Z,0.00
2018-11-02T04:02:11.804Z,0.00
2018-11-02T04:03:11.791Z,0.00
2018-11-02T04:04:11.781Z,0.00
2018-11-02T04:05:11.764Z,0.00
2018-11-02T04:06:11.755Z,0.00
2018-11-02T04:07:11.740Z,0.00
2018-11-02T04:08:11.728Z,0.00
2018-11-02T04:09:11.717Z,0.00
2018-11-02T04:10:11.727Z,0.00
2018-11-02T04:11:11.691Z,0.00
2018-11-02T04:12:11.680Z,0.00
2018-11-02T04:13:11.665Z,0.00
2018-11-02T04:14:11.663Z,0.00
2018-11-02T04:15:11.644Z,0.00
2018-11-02T04:16:11.653Z,0.00
2018-11-02T04:17:11.617Z,0.00
2018-11-02T04:18:11.604Z,0.00
2018-11-02T04:19:11.610Z,0.00
2018-11-02T04:20:11.580Z,0.00
2018-11-02T04:21:11.570Z,0.00
2018-11-02T04:22:11.555Z,0.00
2018-11-02T04:23:11.541Z,0.00
2018-11-02T04:24:11.531Z,0.00
2018-11-02T04:25:11.519Z,0.00
2018-11-02T04:26:11.507Z,0.00
2018-11-02T04:27:11.497Z,0.00
2018-11-02T04:28:11.483Z,0.00
2018-11-02T04:29:11.466Z,0.00
2018-11-02T04:30:11.456Z,0.00
2018-11-02T04:31:11.445Z,0.00
2018-11-02T04:32:11.431Z,0.00
2018-11-02T04:33:11.417Z,0.00
2018-11-02T04:34:11.409Z,0.00
2018-11-02T04:35:11.394Z,0.00
2018-11-02T04:36:11.380Z,0.00
2018-11-02T04:37:11.367Z,0.00
2018-11-02T04:38:11.356Z,0.00
2018-11-02T04:39:11.344Z,0.00
2018-11-02T04:40:11.365Z,0.00
2018-11-02T04:41:11.317Z,0.00
2018-11-02T04:42:11.307Z,0.00
2018-11-02T04:43:11.295Z,0.00
2018-11-02T04:44:11.283Z,0.00
2018-11-02T04:45:11.270Z,0.00
2018-11-02T04:46:11.259Z,0.00
2018-11-02T04:47:11.243Z,0.00
2018-11-02T04:48:11.236Z,0.00
2018-11-02T04:49:11.219Z,0.00
2018-11-02T04:50:11.206Z,0.00
2018-11-02T04:51:11.319Z,0.00
2018-11-02T04:52:11.184Z,0.00
2018-11-02T04:53:11.174Z,0.00
2018-11-02T04:54:11.160Z,0.00
2018-11-02T04:55:11.147Z,0.00
2018-11-02T04:56:11.132Z,0.00
2018-11-02T04:57:11.123Z,0.00
2018-11-02T04:58:11.113Z,0.00
2018-11-02T04:59:11.098Z,0.00
2018-11-02T05:00:11.086Z,0.00
2018-11-02T05:01:11.070Z,0.00
2018-11-02T05:02:11.062Z,0.00
2018-11-02T05:03:11.048Z,0.00
2018-11-02T05:04:11.035Z,0.00
2018-11-02T05:05:11.020Z,0.00
2018-11-02T05:06:11.009Z,0.00
2018-11-02T05:07:10.994Z,0.00
2018-11-02T05:08:10.984Z,0.00
2018-11-02T05:09:10.971Z,0.00
2018-11-02T05:10:10.957Z,0.00
2018-11-02T05:11:10.956Z,0.00
2018-11-02T05:12:10.947Z,0.00
2018-11-02T05:13:10.922Z,0.00
2018-11-02T05:14:10.909Z,0.00
2018-11-02T05:15:10.895Z,0.00
2018-11-02T05:16:10.883Z,0.00
2018-11-02T05:17:10.877Z,0.00
2018-11-02T05:18:10.855Z,0.00
2018-11-02T05:19:10.844Z,0.00
2018-11-02T05:20:10.835Z,0.00
2018-11-02T05:21:10.840Z,0.00
2018-11-02T05:22:10.806Z,0.00
2018-11-02T05:23:10.795Z,0.00
2018-11-02T05:24:10.783Z,0.00
2018-11-02T05:25:10.768Z,0.00
2018-11-02T05:26:10.755Z,0.00
2018-11-02T05:27:10.743Z,0.00
2018-11-02T05:28:10.732Z,0.00
2018-11-02T05:29:10.720Z,0.00
2018-11-02T05:30:10.707Z,0.00
2018-11-02T05:31:10.695Z,0.00
2018-11-02T05:32:10.680Z,0.00
2018-11-02T05:33:10.667Z,0.00
2018-11-02T05:34:10.655Z,0.00
2018-11-02T05:35:10.643Z,0.00
2018-11-02T05:36:10.631Z,0.00
2018-11-02T05:37:10.618Z,0.00
2018-11-02T05:38:10.608Z,0.00
2018-11-02T05:39:10.591Z,0.00
2018-11-02T05:40:10.582Z,0.00
2018-11-02T05:41:10.568Z,0.00
2018-11-02T05:42:10.553Z,0.00
2018-11-02T05:43:10.589Z,0.00
2018-11-02T05:44:10.527Z,0.00
2018-11-02T05:45:10.515Z,0.00
2018-11-02T05:46:10.503Z,0.00
2018-11-02T05:47:10.564Z,0.00
2018-11-02T05:48:10.482Z,0.00
2018-11-02T05:49:10.465Z,0.00
2018-11-02T05:50:10.455Z,0.00
2018-11-02T05:51:10.438Z,0.00
2018-11-02T05:52:10.430Z,0.00
2018-11-02T05:53:10.413Z,0.00
2018-11-02T05:54:10.547Z,0.00
2018-11-02T05:55:10.388Z,0.00
2018-11-02T05:56:10.375Z,0.00
2018-11-02T05:57:10.364Z,0.00
2018-11-02T05:58:10.350Z,0.00
2018-11-02T05:59:10.337Z,0.00
2018-11-02T06:00:10.352Z,0.00
2018-11-02T06:01:10.335Z,0.00
2018-11-02T06:02:10.298Z,0.00
2018-11-02T06:03:10.285Z,0.00
2018-11-02T06:04:10.273Z,0.00
2018-11-02T06:05:10.259Z,0.00
2018-11-02T06:06:10.248Z,0.00
2018-11-02T06:07:10.236Z,0.00
2018-11-02T06:08:10.223Z,0.00
2018-11-02T06:09:10.208Z,0.00
2018-11-02T06:10:10.197Z,0.00
2018-11-02T06:11:10.184Z,0.00
2018-11-02T06:12:10.173Z,0.00
2018-11-02T06:13:10.183Z,0.00
2018-11-02T06:14:10.146Z,0.00
2018-11-02T06:15:10.183Z,0.00
2018-11-02T06:16:10.119Z,0.00
2018-11-02T06:17:10.108Z,0.00
2018-11-02T06:18:10.095Z,0.00
2018-11-02T06:19:10.084Z,0.00
2018-11-02T06:20:10.070Z,0.00
2018-11-02T06:21:10.108Z,0.00
2018-11-02T06:22:10.041Z,0.00
2018-11-02T06:23:10.030Z,0.00
2018-11-02T06:24:10.065Z,0.00
2018-11-02T06:25:10.003Z,0.00
2018-11-02T06:26:09.992Z,0.00
2018-11-02T06:27:10.047Z,0.00
2018-11-02T06:28:09.966Z,0.00
2018-11-02T06:29:09.981Z,0.00
2018-11-02T06:30:09.941Z,0.00
2018-11-02T06:31:09.928Z,0.00
2018-11-02T06:32:09.914Z,0.00
2018-11-02T06:33:09.900Z,0.00
2018-11-02T06:34:09.888Z,0.00
2018-11-02T06:35:09.877Z,0.00
2018-11-02T06:36:09.864Z,0.00
2018-11-02T06:37:09.900Z,0.00
2018-11-02T06:38:09.842Z,0.00
2018-11-02T06:39:09.881Z,0.00
2018-11-02T06:40:09.813Z,0.00
2018-11-02T06:41:09.849Z,0.00
2018-11-02T06:42:09.788Z,5.63
2018-11-02T06:43:09.774Z,5.63
2018-11-02T06:44:09.762Z,5.63
2018-11-02T06:45:09.764Z,5.63
2018-11-02T06:46:09.736Z,5.63
2018-11-02T06:47:09.727Z,5.63
2018-11-02T06:48:09.712Z,5.63
2018-11-02T06:49:09.699Z,5.63
2018-11-02T06:50:09.687Z,5.63
2018-11-02T06:51:09.676Z,5.63
2018-11-02T06:52:09.661Z,5.63
2018-11-02T06:53:09.649Z,5.63
2018-11-02T06:54:09.636Z,5.63
2018-11-02T06:55:09.624Z,5.63
2018-11-02T06:56:09.614Z,5.63
2018-11-02T06:57:09.601Z,5.63
2018-11-02T06:58:09.588Z,5.63
2018-11-02T06:59:09.645Z,5.63
2018-11-02T07:00:09.737Z,5.63
2018-11-02T07:01:09.549Z,5.63
2018-11-02T07:02:09.536Z,5.63
2018-11-02T07:03:09.523Z,11.25
2018-11-02T07:04:09.517Z,11.25
2018-11-02T07:05:09.503Z,11.25
2018-11-02T07:06:09.488Z,11.25
2018-11-02T07:07:09.526Z,11.25
2018-11-02T07:08:09.602Z,11.25
2018-11-02T07:09:09.451Z,11.25
2018-11-02T07:10:09.438Z,11.25
2018-11-02T07:11:09.425Z,11.25
2018-11-02T07:12:09.412Z,11.25
2018-11-02T07:13:09.401Z,11.25
2018-11-02T07:14:09.389Z,11.25
2018-11-02T07:15:09.377Z,16.88
2018-11-02T07:16:09.365Z,16.88
2018-11-02T07:17:09.352Z,16.88
2018-11-02T07:18:09.339Z,16.88
2018-11-02T07:19:09.337Z,22.50
2018-11-02T07:20:09.315Z,22.50
2018-11-02T07:21:09.312Z,22.50
2018-11-02T07:22:09.290Z,22.50
2018-11-02T07:23:09.277Z,22.50
2018-11-02T07:24:09.285Z,22.50
2018-11-02T07:25:09.297Z,22.50
2018-11-02T07:26:09.241Z,22.50
2018-11-02T07:27:09.228Z,22.50
2018-11-02T07:28:09.218Z,22.50
2018-11-02T07:29:09.206Z,22.50
2018-11-02T07:30:09.209Z,22.50
2018-11-02T07:31:09.181Z,22.50
2018-11-02T07:32:09.170Z,22.50
2018-11-02T07:33:09.154Z,22.50
2018-11-02T07:34:09.209Z,22.50
2018-11-02T07:35:09.131Z,22.50
2018-11-02T07:36:09.119Z,22.50
2018-11-02T07:37:09.108Z,22.50
2018-11-02T07:38:09.096Z,22.50
2018-11-02T07:39:09.085Z,22.50
2018-11-02T07:40:09.074Z,22.50
2018-11-02T07:41:09.062Z,22.50
2018-11-02T07:42:09.049Z,22.50
2018-11-02T07:43:09.037Z,22.50
2018-11-02T07:44:09.026Z,22.50
2018-11-02T07:45:09.014Z,22.50
2018-11-02T07:46:09.001Z,22.50
2018-11-02T07:47:08.988Z,22.50
2018-11-02T07:48:08.977Z,22.50
2018-11-02T07:49:08.966Z,22.50
2018-11-02T07:50:08.951Z,22.50
2018-11-02T07:51:08.940Z,22.50
2018-11-02T07:52:08.959Z,22.50
2018-11-02T07:53:08.915Z,28.13
2018-11-02T07:54:08.905Z,28.13
2018-11-02T07:55:08.894Z,28.13
2018-11-02T07:56:08.881Z,28.13
2018-11-02T07:57:08.867Z,33.75
2018-11-02T07:58:08.858Z,33.75
2018-11-02T07:59:08.844Z,33.75
2018-11-02T08:00:08.831Z,33.75
2018-11-02T08:01:08.822Z,39.38
2018-11-02T08:02:08.809Z,39.38
2018-11-02T08:03:08.797Z,39.38
2018-11-02T08:04:08.785Z,39.38
2018-11-02T08:05:08.775Z,39.38
2018-11-02T08:06:08.759Z,39.38
2018-11-02T08:07:08.749Z,39.38
2018-11-02T08:08:08.734Z,39.38
2018-11-02T08:09:08.725Z,39.38
2018-11-02T08:10:08.716Z,39.38
2018-11-02T08:11:08.700Z,39.38
2018-11-02T08:12:08.687Z,39.38
2018-11-02T08:13:08.675Z,39.38
2018-11-02T08:14:08.666Z,39.38
2018-11-02T08:15:08.652Z,39.38
2018-11-02T08:16:08.639Z,39.38
2018-11-02T08:17:08.628Z,33.75
2018-11-02T08:18:08.617Z,33.75
2018-11-02T08:19:08.709Z,33.75
2018-11-02T08:20:08.592Z,33.75
2018-11-02T08:21:08.583Z,33.75
2018-11-02T08:22:08.569Z,33.75
2018-11-02T08:23:08.558Z,33.75
2018-11-02T08:24:08.555Z,33.75
2018-11-02T08:25:08.534Z,33.75
2018-11-02T08:26:08.521Z,33.75
2018-11-02T08:27:08.511Z,33.75
2018-11-02T08:28:08.498Z,33.75
2018-11-02T08:29:08.487Z,33.75
2018-11-02T08:30:08.475Z,33.75
2018-11-02T08:31:08.565Z,39.38
2018-11-02T08:32:08.514Z,39.38
2018-11-02T08:33:08.440Z,39.38
2018-11-02T08:34:08.428Z,39.38
2018-11-02T08:35:08.418Z,33.75
2018-11-02T08:36:08.406Z,33.75
2018-11-02T08:37:08.392Z,33.75
2018-11-02T08:38:08.381Z,28.13
2018-11-02T08:39:08.370Z,28.13
2018-11-02T08:40:08.359Z,28.13
2018-11-02T08:41:08.348Z,28.13
2018-11-02T08:42:08.339Z,22.50
2018-11-02T08:43:08.322Z,22.50
2018-11-02T08:44:08.311Z,22.50
2018-11-02T08:45:08.298Z,22.50
2018-11-02T08:46:08.288Z,22.50
2018-11-02T08:47:08.278Z,22.50
2018-11-02T08:48:08.265Z,22.50
2018-11-02T08:49:08.253Z,22.50
2018-11-02T08:50:08.242Z,22.50
2018-11-02T08:51:08.236Z,22.50
2018-11-02T08:52:08.272Z,28.13
2018-11-02T08:53:08.207Z,28.13
2018-11-02T08:54:08.198Z,28.13
2018-11-02T08:55:08.190Z,28.13
2018-11-02T08:56:08.173Z,28.13
2018-11-02T08:57:08.161Z,28.13
2018-11-02T08:58:08.374Z,28.13
2018-11-02T08:59:08.156Z,28.13
2018-11-02T09:00:08.176Z,33.75
2018-11-02T09:01:08.118Z,33.75
2018-11-02T09:02:08.107Z,33.75
2018-11-02T09:03:08.096Z,33.75
2018-11-02T09:04:08.086Z,33.75
2018-11-02T09:05:08.153Z,33.75
2018-11-02T09:06:08.065Z,33.75
2018-11-02T09:07:08.055Z,33.75
2018-11-02T09:08:08.040Z,33.75
2018-11-02T09:09:08.028Z,33.75
2018-11-02T09:10:08.016Z,33.75
2018-11-02T09:11:08.005Z,33.75
2018-11-02T09:12:08.031Z,33.75
2018-11-02T09:13:07.983Z,33.75
2018-11-02T09:14:07.970Z,33.75
2018-11-02T09:15:07.958Z,39.38
2018-11-02T09:16:07.949Z,39.38
2018-11-02T09:17:07.936Z,39.38
2018-11-02T09:18:07.924Z,39.38
2018-11-02T09:19:07.966Z,39.38
2018-11-02T09:20:07.903Z,39.38
2018-11-02T09:21:07.892Z,39.38
2018-11-02T09:22:07.880Z,39.38
2018-11-02T09:23:07.877Z,39.38
2018-11-02T09:24:07.861Z,39.38
2018-11-02T09:25:07.847Z,39.38
2018-11-02T09:26:07.834Z,39.38
2018-11-02T09:27:07.825Z,39.38
2018-11-02T09:28:07.994Z,39.38
2018-11-02T09:29:07.804Z,39.38
2018-11-02T09:30:07.786Z,39.38
2018-11-02T09:31:07.776Z,39.38
2018-11-02T09:32:07.766Z,39.38
2018-11-02T09:33:07.754Z,39.38
2018-11-02T09:34:07.742Z,39.38
2018-11-02T09:35:07.732Z,39.38
2018-11-02T09:36:07.719Z,39.38
2018-11-02T09:37:07.708Z,45.00
2018-11-02T09:38:07.697Z,45.00
2018-11-02T09:39:07.685Z,45.00
2018-11-02T09:40:07.689Z,45.00
2018-11-02T09:41:07.660Z,45.00
2018-11-02T09:42:07.650Z,45.00
2018-11-02T09:43:07.645Z,45.00
2018-11-02T09:44:07.628Z,45.00
2018-11-02T09:45:07.616Z,45.00
2018-11-02T09:46:07.604Z,50.63
2018-11-02T09:47:07.595Z,50.63
2018-11-02T09:48:07.581Z,56.25
2018-11-02T09:49:07.592Z,56.25
2018-11-02T09:50:07.563Z,56.25
2018-11-02T09:51:07.548Z,56.25
2018-11-02T09:52:07.674Z,56.25
2018-11-02T09:53:07.526Z,56.25
2018-11-02T09:54:07.511Z,56.25
2018-11-02T09:55:07.503Z,61.88
2018-11-02T09:56:07.491Z,61.88
2018-11-02T09:57:07.482Z,61.88
2018-11-02T09:58:07.468Z,61.88
2018-11-02T09:59:07.458Z,61.88
2018-11-02T10:00:07.449Z,61.88
2018-11-02T10:01:07.432Z,61.88
2018-11-02T10:02:07.516Z,61.88
2018-11-02T10:03:07.412Z,67.50
2018-11-02T10:04:07.400Z,67.50
2018-11-02T10:05:07.387Z,67.50
2018-11-02T10:06:07.379Z,73.13
2018-11-02T10:07:07.367Z,73.13
2018-11-02T10:08:07.355Z,78.75
2018-11-02T10:09:07.406Z,78.75
2018-11-02T10:10:07.335Z,84.38
2018-11-02T10:11:07.323Z,84.38
2018-11-02T10:12:07.313Z,84.38
2018-11-02T10:13:07.298Z,78.75
2018-11-02T10:14:07.288Z,73.13
2018-11-02T10:15:07.277Z,67.50
2018-11-02T10:16:07.267Z,67.50
2018-11-02T10:17:07.255Z,61.88
2018-11-02T10:18:07.243Z,61.88
2018-11-02T10:19:07.236Z,56.25
2018-11-02T10:20:07.221Z,56.25
2018-11-02T10:21:07.214Z,56.25
2018-11-02T10:22:07.201Z,56.25
2018-11-02T10:23:07.191Z,61.88
2018-11-02T10:24:07.181Z,61.88
2018-11-02T10:25:07.166Z,61.88
2018-11-02T10:26:07.161Z,61.88
2018-11-02T10:27:07.146Z,61.88
2018-11-02T10:28:07.171Z,61.88
2018-11-02T10:29:07.125Z,67.50
2018-11-02T10:30:07.114Z,67.50
2018-11-02T10:31:07.104Z,67.50
2018-11-02T10:32:07.097Z,67.50
2018-11-02T10:33:07.082Z,67.50
2018-11-02T10:34:07.074Z,67.50
2018-11-02T10:35:07.061Z,67.50
2018-11-02T10:36:07.216Z,67.50
2018-11-02T10:37:07.038Z,61.88
2018-11-02T10:38:07.029Z,61.88
2018-11-02T10:39:07.019Z,56.25
2018-11-02T10:40:07.008Z,56.25
2018-11-02T10:41:06.996Z,56.25
2018-11-02T10:42:06.986Z,56.25
2018-11-02T10:43:06.977Z,56.25
2018-11-02T10:44:06.982Z,56.25
2018-11-02T10:45:07.033Z,56.25
2018-11-02T10:46:06.945Z,56.25
2018-11-02T10:47:06.934Z,61.88
2018-11-02T10:48:06.924Z,61.88
2018-11-02T10:49:06.953Z,67.50
2018-11-02T10:50:06.902Z,67.50
2018-11-02T10:51:06.896Z,67.50
2018-11-02T10:52:06.880Z,73.13
2018-11-02T10:53:06.869Z,73.13
2018-11-02T10:54:06.860Z,73.13
2018-11-02T10:55:06.851Z,78.75
2018-11-02T10:56:06.841Z,78.75
2018-11-02T10:57:06.831Z,78.75
2018-11-02T10:58:06.818Z,78.75
2018-11-02T10:59:06.810Z,73.13
2018-11-02T11:00:06.801Z,73.13
2018-11-02T11:01:06.999Z,67.50
2018-11-02T11:02:06.776Z,67.50
2018-11-02T11:03:06.769Z,61.88
2018-11-02T11:04:06.760Z,61.88
2018-11-02T11:05:06.748Z,61.88
2018-11-02T11:06:06.737Z,61.88
2018-11-02T11:07:06.728Z,61.88
2018-11-02T11:08:06.717Z,61.88
2018-11-02T11:09:06.705Z,61.88
2018-11-02T11:10:06.697Z,61.88
2018-11-02T11:11:06.686Z,61.88
2018-11-02T11:12:06.817Z,61.88
2018-11-02T11:13:07.195Z,61.88
2018-11-02T11:14:06.655Z,61.88
2018-11-02T11:15:06.645Z,61.88
2018-11-02T11:16:06.636Z,61.88
2018-11-02T11:17:06.659Z,61.88
2018-11-02T11:18:06.613Z,56.25
2018-11-02T11:19:06.605Z,56.25
2018-11-02T11:20:06.594Z,56.25
2018-11-02T11:21:06.632Z,56.25
2018-11-02T11:22:06.575Z,56.25
2018-11-02T11:23:06.565Z,56.25
2018-11-02T11:24:06.557Z,56.25
2018-11-02T11:25:06.542Z,56.25
2018-11-02T11:26:06.536Z,56.25
2018-11-02T11:27:06.524Z,56.25
2018-11-02T11:28:06.516Z,56.25
2018-11-02T11:29:06.507Z,56.25
2018-11-02T11:30:06.493Z,56.25
2018-11-02T11:31:06.484Z,56.25
2018-11-02T11:32:06.475Z,56.25
2018-11-02T11:33:06.462Z,56.25
2018-11-02T11:34:06.497Z,56.25
2018-11-02T11:35:06.463Z,61.88
2018-11-02T11:36:06.433Z,61.88
2018-11-02T11:37:06.423Z,61.88
2018-11-02T11:38:06.417Z,67.50
2018-11-02T11:39:06.404Z,67.50
2018-11-02T11:40:06.399Z,73.13
2018-11-02T11:41:06.384Z,73.13
2018-11-02T11:42:06.374Z,73.13
2018-11-02T11:43:06.363Z,73.13
2018-11-02T11:44:06.355Z,73.13
2018-11-02T11:45:06.344Z,73.13
2018-11-02T11:46:06.333Z,73.13
2018-11-02T11:47:06.324Z,67.50
2018-11-02T11:48:06.314Z,67.50
2018-11-02T11:49:06.444Z,67.50
2018-11-02T11:50:06.296Z,67.50
2018-11-02T11:51:06.285Z,67.50
2018-11-02T11:52:06.277Z,67.50
2018-11-02T11:53:06.264Z,67.50
2018-11-02T11:54:06.255Z,67.50
2018-11-02T11:55:06.248Z,61.88
2018-11-02T11:56:06.244Z,61.88
2018-11-02T11:57:06.229Z,61.88
2018-11-02T11:58:06.217Z,61.88
2018-11-02T11:59:06.210Z,61.88
2018-11-02T12:00:06.201Z,67.50
2018-11-02T12:01:06.194Z,67.50
2018-11-02T12:02:06.211Z,67.50
2018-11-02T12:03:06.171Z,73.13
2018-11-02T12:04:06.249Z,73.13
2018-11-02T12:05:06.257Z,73.13
2018-11-02T12:06:06.155Z,73.13
2018-11-02T12:07:06.132Z,73.13
2018-11-02T12:08:06.124Z,73.13
2018-11-02T12:09:06.139Z,73.13
2018-11-02T12:10:06.143Z,73.13
2018-11-02T12:11:06.094Z,73.13
2018-11-02T12:12:06.085Z,73.13
2018-11-02T12:13:06.074Z,78.75
2018-11-02T12:14:06.064Z,78.75
2018-11-02T12:15:06.059Z,78.75
2018-11-02T12:16:06.241Z,73.13
2018-11-02T12:17:06.040Z,73.13
2018-11-02T12:18:06.031Z,73.13
2018-11-02T12:19:06.021Z,73.13
2018-11-02T12:20:06.011Z,73.13
2018-11-02T12:21:06.001Z,73.13
2018-11-02T12:22:05.992Z,67.50
2018-11-02T12:23:05.982Z,67.50
2018-11-02T12:24:05.973Z,67.50
2018-11-02T12:25:05.962Z,67.50
2018-11-02T12:26:05.952Z,67.50
2018-11-02T12:27:05.944Z,67.50
2018-11-02T12:28:06.017Z,67.50
2018-11-02T12:29:05.927Z,67.50
2018-11-02T12:30:05.917Z,67.50
2018-11-02T12:31:05.907Z,67.50
2018-11-02T12:32:05.897Z,67.50
2018-11-02T12:33:05.887Z,67.50
2018-11-02T12:34:05.880Z,61.88
2018-11-02T12:35:05.870Z,61.88
2018-11-02T12:36:05.859Z,61.88
2018-11-02T12:37:05.877Z,61.88
2018-11-02T12:38:05.840Z,61.88
2018-11-02T12:39:05.835Z,61.88
2018-11-02T12:40:05.822Z,61.88
2018-11-02T12:41:05.843Z,61.88
2018-11-02T12:42:05.802Z,56.25
2018-11-02T12:43:05.859Z,56.25
2018-11-02T12:44:05.786Z,56.25
2018-11-02T12:45:05.775Z,56.25
2018-11-02T12:46:05.766Z,56.25
2018-11-02T12:47:05.758Z,50.63
2018-11-02T12:48:05.862Z,50.63
2018-11-02T12:49:05.975Z,50.63
2018-11-02T12:50:05.826Z,50.63
2018-11-02T12:51:05.718Z,50.63
2018-11-02T12:52:05.709Z,50.63
2018-11-02T12:53:05.702Z,50.63
2018-11-02T12:54:05.691Z,50.63
2018-11-02T12:55:05.683Z,50.63
2018-11-02T12:56:05.672Z,50.63
2018-11-02T12:57:05.664Z,50.63
2018-11-02T12:58:05.652Z,50.63
2018-11-02T12:59:05.645Z,50.63
2018-11-02T13:00:05.636Z,50.63
2018-11-02T13:01:05.627Z,50.63
2018-11-02T13:02:05.617Z,50.63
2018-11-02T13:03:05.605Z,50.63
2018-11-02T13:04:05.598Z,56.25
2018-11-02T13:05:05.589Z,56.25
2018-11-02T13:06:05.577Z,56.25